createdAt,value
2018-03-17T00:00:25.407Z,61.62
2018-03-17T00:03:14.726Z,61.17
2018-03-17T00:05:42.846Z,61.61
2018-03-17T00:08:10.500Z,62.43
2018-03-17T00:10:38.185Z,62.29
2018-03-17T00:13:05.800Z,62.09
2018-03-17T00:15:34.346Z,61.88
2018-03-17T00:18:02.063Z,62.11
2018-03-17T00:20:30.165Z,61.84
2018-03-17T00:22:58.053Z,61.26
2018-03-17T00:25:26.770Z,61.21
2018-03-17T00:27:54.422Z,61.34
2018-03-17T00:30:22.368Z,60.94
2018-03-17T00:32:50.539Z,61.19
2018-03-17T00:35:18.270Z,60.46
2018-03-17T00:37:46.646Z,60.62
2018-03-17T00:40:14.311Z,60.67
2018-03-17T00:42:41.891Z,60.24
2018-03-17T00:45:09.605Z,60.59
2018-03-17T00:47:37.231Z,59.87
2018-03-17T00:50:04.854Z,59.21
2018-03-17T00:52:32.451Z,59.71
2018-03-17T00:55:00.079Z,60.13
2018-03-17T00:57:27.733Z,58.78
2018-03-17T00:59:55.351Z,59.34
2018-03-17T01:02:23.050Z,59.71
2018-03-17T01:04:51.362Z,58.38
2018-03-17T01:07:19.324Z,58.03
2018-03-17T01:09:47.645Z,57.82
2018-03-17T01:12:16.143Z,57.50
2018-03-17T01:14:44.198Z,57.66
2018-03-17T01:17:12.976Z,57.49
2018-03-17T01:19:41.171Z,57.20
2018-03-17T01:22:09.360Z,58.19
2018-03-17T01:24:36.942Z,58.73
2018-03-17T01:27:04.678Z,58.24
2018-03-17T01:29:32.332Z,58.58
2018-03-17T01:31:59.958Z,58.82
2018-03-17T01:34:27.827Z,58.63
2018-03-17T01:36:55.420Z,59.03
2018-03-17T01:39:23.301Z,58.91
2018-03-17T01:41:51.206Z,58.31
2018-03-17T01:44:18.853Z,59.17
2018-03-17T01:46:46.498Z,60.05
2018-03-17T01:49:14.109Z,59.29
2018-03-17T01:51:41.679Z,59.34
2018-03-17T01:54:21.061Z,59.85
2018-03-17T01:56:48.686Z,59.13
2018-03-17T01:59:16.327Z,58.96
2018-03-17T02:01:43.951Z,59.10
2018-03-17T02:04:11.634Z,58.99
2018-03-17T02:06:39.295Z,58.44
2018-03-17T02:09:06.886Z,57.25
2018-03-17T02:11:34.575Z,56.80
2018-03-17T02:14:02.289Z,56.60
2018-03-17T02:16:29.916Z,56.46
2018-03-17T02:18:57.849Z,57.05
2018-03-17T02:21:25.683Z,56.26
2018-03-17T02:23:53.287Z,55.75
2018-03-17T02:26:20.871Z,55.51
2018-03-17T02:28:48.520Z,54.99
2018-03-17T02:31:16.110Z,54.74
2018-03-17T02:33:43.741Z,54.42
2018-03-17T02:36:11.483Z,55.32
2018-03-17T02:38:39.172Z,54.06
2018-03-17T02:41:06.934Z,53.61
2018-03-17T02:43:34.603Z,53.70
2018-03-17T02:46:02.214Z,53.29
2018-03-17T02:48:29.941Z,52.97
2018-03-17T02:50:58.005Z,52.99
2018-03-17T02:53:25.727Z,52.83
2018-03-17T02:55:53.736Z,52.80
2018-03-17T02:58:21.488Z,52.65
2018-03-17T03:00:49.187Z,51.98
2018-03-17T03:03:16.873Z,52.22
2018-03-17T03:05:44.545Z,52.10
2018-03-17T03:08:12.226Z,52.37
2018-03-17T03:10:39.808Z,51.98
2018-03-17T03:13:07.691Z,51.64
2018-03-17T03:15:35.663Z,51.68
2018-03-17T03:18:03.284Z,52.30
2018-03-17T03:20:31.008Z,52.29
2018-03-17T03:22:58.700Z,52.03
2018-03-17T03:25:26.304Z,52.90
2018-03-17T03:27:53.887Z,51.73
2018-03-17T03:30:21.491Z,51.48
2018-03-17T03:32:49.123Z,50.95
2018-03-17T03:35:16.779Z,51.61
2018-03-17T03:37:44.399Z,51.55
2018-03-17T03:40:12.069Z,50.38
2018-03-17T03:42:39.685Z,50.99
2018-03-17T03:45:07.284Z,50.96
2018-03-17T03:47:34.859Z,50.79
2018-03-17T03:50:02.825Z,49.34
2018-03-17T03:52:30.739Z,49.99
2018-03-17T03:54:58.348Z,49.40
2018-03-17T03:57:26.006Z,49.03
2018-03-17T03:59:53.756Z,48.49
2018-03-17T04:02:21.346Z,48.38
2018-03-17T04:04:48.997Z,48.65
2018-03-17T04:07:16.621Z,48.89
2018-03-17T04:09:44.201Z,47.93
2018-03-17T04:12:12.008Z,48.19
2018-03-17T04:14:39.691Z,48.65
2018-03-17T04:17:07.384Z,48.08
2018-03-17T04:19:35.007Z,48.13
2018-03-17T04:22:02.655Z,48.24
2018-03-17T04:24:30.276Z,48.92
2018-03-17T04:26:57.910Z,47.62
2018-03-17T04:29:25.609Z,47.68
2018-03-17T04:31:53.151Z,47.83
2018-03-17T04:34:20.864Z,47.51
2018-03-17T04:36:48.447Z,46.83
2018-03-17T04:39:16.082Z,46.94
2018-03-17T04:41:43.706Z,47.30
2018-03-17T04:44:11.282Z,47.56
2018-03-17T04:46:38.886Z,47.60
2018-03-17T04:49:06.587Z,47.84
2018-03-17T04:51:34.163Z,48.03
2018-03-17T04:54:01.846Z,47.97
2018-03-17T04:56:29.475Z,47.49
2018-03-17T04:58:57.042Z,47.80
2018-03-17T05:01:24.934Z,47.44
2018-03-17T05:03:52.908Z,48.02
2018-03-17T05:06:20.632Z,47.57
2018-03-17T05:08:48.205Z,47.23
2018-03-17T05:11:15.828Z,47.79
2018-03-17T05:13:43.775Z,47.69
2018-03-17T05:16:11.469Z,47.00
2018-03-17T05:18:39.287Z,48.01
2018-03-17T05:21:06.982Z,47.46
2018-03-17T05:23:34.922Z,47.43
2018-03-17T05:26:02.485Z,47.57
2018-03-17T05:28:30.150Z,47.24
2018-03-17T05:30:57.769Z,48.50
2018-03-17T05:33:25.379Z,47.83
2018-03-17T05:35:52.989Z,47.73
2018-03-17T05:38:20.606Z,48.05
2018-03-17T05:40:48.335Z,47.58
2018-03-17T05:43:15.979Z,47.25
2018-03-17T05:45:43.819Z,46.98
2018-03-17T05:48:11.421Z,47.46
2018-03-17T05:50:39.003Z,47.86
2018-03-17T05:53:06.644Z,47.45
2018-03-17T05:55:34.281Z,46.55
2018-03-17T05:58:01.842Z,46.12
2018-03-17T06:00:29.851Z,46.03
2018-03-17T06:02:57.532Z,45.87
2018-03-17T06:05:25.239Z,46.12
2018-03-17T06:07:52.818Z,46.88
2018-03-17T06:10:20.471Z,46.42
2018-03-17T06:12:50.470Z,45.64
2018-03-17T06:15:18.119Z,44.93
2018-03-17T06:17:45.797Z,45.24
2018-03-17T06:20:13.407Z,44.62
2018-03-17T06:22:40.982Z,45.65
2018-03-17T06:25:08.634Z,45.03
2018-03-17T06:27:36.239Z,44.53
2018-03-17T06:30:03.825Z,44.38
2018-03-17T06:32:31.508Z,45.18
2018-03-17T06:34:59.300Z,45.28
2018-03-17T06:37:27.251Z,44.66
2018-03-17T06:39:55.056Z,44.86
2018-03-17T06:42:22.727Z,44.74
2018-03-17T06:44:51.169Z,45.43
2018-03-17T06:47:19.227Z,44.26
2018-03-17T06:49:46.854Z,45.47
2018-03-17T06:52:14.751Z,45.22
2018-03-17T06:54:42.730Z,45.45
2018-03-17T06:57:10.462Z,45.86
2018-03-17T06:59:38.137Z,46.27
2018-03-17T07:02:06.027Z,46.29
2018-03-17T07:04:33.675Z,45.62
2018-03-17T07:07:01.778Z,46.40
2018-03-17T07:09:29.422Z,46.10
2018-03-17T07:11:57.477Z,46.20
2018-03-17T07:14:25.105Z,46.59
2018-03-17T07:16:52.754Z,46.37
2018-03-17T07:19:20.400Z,46.55
2018-03-17T07:21:48.454Z,46.36
2018-03-17T07:24:16.378Z,46.52
2018-03-17T07:26:45.440Z,46.67
2018-03-17T07:29:13.085Z,46.31
2018-03-17T07:31:40.741Z,46.30
2018-03-17T07:34:08.387Z,46.58
2018-03-17T07:36:36.101Z,46.20
2018-03-17T07:39:03.793Z,46.30
2018-03-17T07:41:31.569Z,46.37
2018-03-17T07:43:59.290Z,46.15
2018-03-17T07:46:26.959Z,46.15
2018-03-17T07:48:54.611Z,46.52
2018-03-17T07:51:22.539Z,46.81
2018-03-17T07:53:50.131Z,47.10
2018-03-17T07:56:17.795Z,46.67
2018-03-17T07:58:45.635Z,46.26
2018-03-17T08:01:13.526Z,45.36
2018-03-17T08:03:41.469Z,45.87
2018-03-17T08:06:09.071Z,45.35
2018-03-17T08:08:36.656Z,46.07
2018-03-17T08:11:04.349Z,45.81
2018-03-17T08:13:32.425Z,45.88
2018-03-17T08:16:00.072Z,46.39
2018-03-17T08:18:28.248Z,45.68
2018-03-17T08:20:56.617Z,46.21
2018-03-17T08:23:24.273Z,46.91
2018-03-17T08:25:51.958Z,46.35
2018-03-17T08:28:20.010Z,45.97
2018-03-17T08:33:46.727Z,44.80
2018-03-17T08:36:14.670Z,44.84
2018-03-17T08:38:42.272Z,45.34
2018-03-17T08:41:10.103Z,45.17
2018-03-17T08:43:37.806Z,45.43
2018-03-17T08:46:05.515Z,45.76
2018-03-17T08:48:33.483Z,45.22
2018-03-17T08:51:01.113Z,44.98
2018-03-17T08:53:29.149Z,45.92
2018-03-17T08:55:56.753Z,45.13
2018-03-17T08:58:24.341Z,45.19
2018-03-17T09:00:55.902Z,44.89
2018-03-17T09:03:23.730Z,45.46
2018-03-17T09:05:51.551Z,45.25
2018-03-17T09:08:19.258Z,46.38
2018-03-17T09:10:46.940Z,44.75
2018-03-17T09:13:14.672Z,45.54
2018-03-17T09:15:42.425Z,44.90
2018-03-17T09:18:10.133Z,44.32
2018-03-17T09:20:37.766Z,44.75
2018-03-17T09:23:05.429Z,44.77
2018-03-17T09:25:33.075Z,45.13
2018-03-17T09:28:00.679Z,44.99
2018-03-17T09:30:28.278Z,45.47
2018-03-17T09:32:55.937Z,45.16
2018-03-17T09:35:23.538Z,45.04
2018-03-17T09:37:51.189Z,44.79
2018-03-17T09:40:19.127Z,45.33
2018-03-17T09:42:46.789Z,45.51
2018-03-17T09:45:14.389Z,45.79
2018-03-17T09:47:41.985Z,46.41
2018-03-17T09:50:09.652Z,45.74
2018-03-17T09:52:37.315Z,46.20
2018-03-17T09:55:06.141Z,46.91
2018-03-17T09:57:33.980Z,46.60
2018-03-17T10:00:01.645Z,46.47
2018-03-17T10:02:29.291Z,46.91
2018-03-17T10:04:56.999Z,46.40
2018-03-17T10:07:24.928Z,45.21
2018-03-17T10:09:52.785Z,45.81
2018-03-17T10:12:20.472Z,45.52
2018-03-17T10:14:48.110Z,45.63
2018-03-17T10:17:15.697Z,45.61
2018-03-17T10:19:43.550Z,45.56
2018-03-17T10:22:11.203Z,45.31
2018-03-17T10:24:38.803Z,45.73
2018-03-17T10:27:07.642Z,45.04
2018-03-17T10:29:35.656Z,45.43
2018-03-17T10:32:03.241Z,45.70
2018-03-17T10:34:31.078Z,45.28
2018-03-17T10:36:58.758Z,45.92
2018-03-17T10:39:26.584Z,44.34
2018-03-17T10:41:54.293Z,44.98
2018-03-17T10:44:21.961Z,45.61
2018-03-17T10:46:49.572Z,45.16
2018-03-17T10:49:17.221Z,44.64
2018-03-17T10:51:45.096Z,44.81
2018-03-17T10:54:12.733Z,45.13
2018-03-17T10:56:40.405Z,45.36
2018-03-17T10:59:08.188Z,45.93
2018-03-17T11:01:41.340Z,45.97
2018-03-17T11:04:09.047Z,45.50
2018-03-17T11:06:36.650Z,44.83
2018-03-17T11:09:04.346Z,45.05
2018-03-17T11:11:32.273Z,45.26
2018-03-17T11:13:59.948Z,44.81
2018-03-17T11:16:27.626Z,45.07
2018-03-17T11:18:55.529Z,44.40
2018-03-17T11:21:23.333Z,42.49
2018-03-17T11:23:51.266Z,42.18
2018-03-17T11:26:18.862Z,42.21
2018-03-17T11:28:46.821Z,42.92
2018-03-17T11:31:14.436Z,43.15
2018-03-17T11:33:42.011Z,41.81
2018-03-17T11:36:09.634Z,41.49
2018-03-17T11:38:37.248Z,41.50
2018-03-17T11:41:05.236Z,41.76
2018-03-17T11:43:32.868Z,40.98
2018-03-17T11:46:00.694Z,40.78
2018-03-17T11:48:28.324Z,40.79
2018-03-17T11:50:56.030Z,41.83
2018-03-17T11:53:23.597Z,41.11
2018-03-17T11:55:51.192Z,41.85
2018-03-17T11:58:18.853Z,41.11
2018-03-17T12:00:46.466Z,40.46
2018-03-17T12:03:15.393Z,40.37
2018-03-17T12:05:43.090Z,40.23
2018-03-17T12:08:10.768Z,39.46
2018-03-17T12:10:38.705Z,38.88
2018-03-17T12:13:06.436Z,38.46
2018-03-17T12:15:34.108Z,37.57
2018-03-17T12:18:02.028Z,39.02
2018-03-17T12:20:29.981Z,37.98
2018-03-17T12:22:58.620Z,38.02
2018-03-17T12:25:26.480Z,37.07
2018-03-17T12:27:54.112Z,34.77
2018-03-17T12:30:21.722Z,35.38
2018-03-17T12:32:49.664Z,36.36
2018-03-17T12:35:17.305Z,35.18
2018-03-17T12:37:45.148Z,35.80
2018-03-17T12:40:12.772Z,35.47
2018-03-17T12:42:40.368Z,34.61
2018-03-17T12:45:08.168Z,34.88
2018-03-17T12:47:35.807Z,34.71
2018-03-17T12:50:03.443Z,35.85
2018-03-17T12:52:31.088Z,35.29
2018-03-17T12:54:58.772Z,35.04
2018-03-17T12:57:26.740Z,35.43
2018-03-17T12:59:54.450Z,36.24
2018-03-17T13:02:22.009Z,35.51
2018-03-17T13:04:49.631Z,35.45
2018-03-17T13:07:17.300Z,35.33
2018-03-17T13:09:44.900Z,35.75
2018-03-17T13:12:12.783Z,37.13
2018-03-17T13:14:40.637Z,35.24
2018-03-17T13:17:08.319Z,35.18
2018-03-17T13:19:35.934Z,36.33
2018-03-17T13:22:03.733Z,36.45
2018-03-17T13:24:31.592Z,36.21
2018-03-17T13:27:10.978Z,34.39
2018-03-17T13:29:38.640Z,34.68
2018-03-17T13:32:11.963Z,35.07
2018-03-17T13:34:39.585Z,34.89
2018-03-17T13:37:19.302Z,33.68
2018-03-17T13:39:47.204Z,34.21
2018-03-17T13:42:14.878Z,34.09
2018-03-17T13:44:42.743Z,34.66
2018-03-17T13:47:10.768Z,32.44
2018-03-17T13:49:38.427Z,32.44
2018-03-17T13:52:06.024Z,31.55
2018-03-17T13:54:33.634Z,31.22
2018-03-17T13:57:01.240Z,31.14
2018-03-17T13:59:28.976Z,30.52
2018-03-17T14:01:56.563Z,30.99
2018-03-17T14:04:24.298Z,29.68
2018-03-17T14:06:52.027Z,28.77
2018-03-17T14:09:19.753Z,28.63
2018-03-17T14:11:47.580Z,28.78
2018-03-17T14:14:15.410Z,28.89
2018-03-17T14:16:43.161Z,29.49
2018-03-17T14:19:11.030Z,28.74
2018-03-17T14:21:38.643Z,28.64
2018-03-17T14:24:06.285Z,29.21
2018-03-17T14:26:34.094Z,27.96
2018-03-17T14:29:01.970Z,28.82
2018-03-17T14:31:29.612Z,29.70
2018-03-17T14:33:57.307Z,28.48
2018-03-17T14:36:24.879Z,29.11
2018-03-17T14:38:52.643Z,28.53
2018-03-17T14:41:20.330Z,28.67
2018-03-17T14:43:47.932Z,29.82
2018-03-17T14:46:15.570Z,29.42
2018-03-17T14:48:43.172Z,30.29
2018-03-17T14:51:10.778Z,29.45
2018-03-17T14:53:38.373Z,29.49
2018-03-17T14:56:06.064Z,29.22
2018-03-17T14:58:33.654Z,29.36
2018-03-17T15:01:01.216Z,29.23
2018-03-17T15:03:28.817Z,29.98
2018-03-17T15:05:56.396Z,30.83
2018-03-17T15:08:24.488Z,30.37
2018-03-17T15:10:52.301Z,30.79
2018-03-17T15:13:19.922Z,30.71
2018-03-17T15:15:47.627Z,30.97
2018-03-17T15:18:15.193Z,30.21
2018-03-17T15:20:42.913Z,30.82
2018-03-17T15:23:10.512Z,30.98
2018-03-17T15:25:38.128Z,32.10
2018-03-17T15:28:05.784Z,31.96
2018-03-17T15:30:33.529Z,32.17
2018-03-17T15:33:01.213Z,32.13
2018-03-17T15:35:29.086Z,32.73
2018-03-17T15:37:56.660Z,33.10
2018-03-17T15:40:24.247Z,32.15
2018-03-17T15:42:51.877Z,32.27
2018-03-17T15:45:19.648Z,33.39
2018-03-17T15:47:47.536Z,33.23
2018-03-17T15:50:15.162Z,33.46
2018-03-17T15:52:42.812Z,32.12
2018-03-17T15:55:10.479Z,31.95
2018-03-17T15:57:38.142Z,32.50
2018-03-17T16:00:05.796Z,32.26
2018-03-17T16:02:33.443Z,32.75
2018-03-17T16:05:01.059Z,32.91
2018-03-17T16:07:28.730Z,33.62
2018-03-17T16:09:56.313Z,34.27
2018-03-17T16:12:23.889Z,34.07
2018-03-17T16:14:51.579Z,34.25
2018-03-17T16:17:19.153Z,33.90
2018-03-17T16:19:46.961Z,33.64
2018-03-17T16:22:14.570Z,34.01
2018-03-17T16:24:42.131Z,33.74
2018-03-17T16:27:09.775Z,34.32
2018-03-17T16:29:37.740Z,34.15
2018-03-17T16:32:05.306Z,34.21
2018-03-17T16:34:32.884Z,34.79
2018-03-17T16:37:00.499Z,35.51
2018-03-17T16:39:28.230Z,35.29
2018-03-17T16:41:55.811Z,35.66
2018-03-17T16:44:23.716Z,35.84
2018-03-17T16:46:51.367Z,36.00
2018-03-17T16:49:19.003Z,36.33
2018-03-17T16:51:46.664Z,36.29
2018-03-17T16:54:14.247Z,36.62
2018-03-17T16:56:41.917Z,36.60
2018-03-17T16:59:09.524Z,36.85
2018-03-17T17:01:37.197Z,36.62
2018-03-17T17:04:04.774Z,37.00
2018-03-17T17:06:32.402Z,36.56
2018-03-17T17:08:59.981Z,36.72
2018-03-17T17:11:27.561Z,37.43
2018-03-17T17:13:55.231Z,36.97
2018-03-17T17:16:23.030Z,37.43
2018-03-17T17:18:50.626Z,37.43
2018-03-17T17:21:18.538Z,37.10
2018-03-17T17:23:46.617Z,37.11
2018-03-17T17:26:14.383Z,37.56
2018-03-17T17:28:42.120Z,37.11
2018-03-17T17:31:10.156Z,37.65
2018-03-17T17:33:37.851Z,37.92
2018-03-17T17:36:05.544Z,38.00
2018-03-17T17:38:33.076Z,38.13
2018-03-17T17:41:00.673Z,38.19
2018-03-17T17:43:28.300Z,38.24
2018-03-17T17:45:55.956Z,37.91
2018-03-17T17:48:23.544Z,38.47
2018-03-17T17:50:51.669Z,38.00
2018-03-17T17:53:20.415Z,38.52
2018-03-17T17:55:48.311Z,38.33
2018-03-17T17:58:15.999Z,39.22
2018-03-17T18:00:43.649Z,39.16
2018-03-17T18:03:11.229Z,38.91
2018-03-17T18:05:38.937Z,38.85
2018-03-17T18:08:06.548Z,39.32
2018-03-17T18:10:34.130Z,39.39
2018-03-17T18:13:06.253Z,38.80
2018-03-17T18:15:33.866Z,38.01
2018-03-17T18:18:01.533Z,38.42
2018-03-17T18:20:29.153Z,39.15
2018-03-17T18:22:56.971Z,38.56
2018-03-17T18:25:24.796Z,38.44
2018-03-17T18:27:52.728Z,39.15
2018-03-17T18:30:20.483Z,39.65
2018-03-17T18:32:48.081Z,39.00
2018-03-17T18:35:15.807Z,39.25
2018-03-17T18:37:43.770Z,39.42
2018-03-17T18:40:11.413Z,39.29
2018-03-17T18:42:39.022Z,39.18
2018-03-17T18:45:06.668Z,39.63
2018-03-17T18:47:34.381Z,39.78
2018-03-17T18:50:02.056Z,39.45
2018-03-17T18:52:30.044Z,39.50
2018-03-17T18:54:57.822Z,39.70
2018-03-17T18:59:51.493Z,40.33
2018-03-17T19:02:19.568Z,40.83
2018-03-17T19:04:47.573Z,40.27
2018-03-17T19:07:15.197Z,40.64
2018-03-17T19:09:42.985Z,40.65
2018-03-17T19:12:10.568Z,41.05
2018-03-17T19:14:39.206Z,41.29
2018-03-17T19:17:07.202Z,41.15
2018-03-17T19:19:34.855Z,41.03
2018-03-17T19:22:02.563Z,40.95
2018-03-17T19:24:30.223Z,40.38
2018-03-17T19:26:57.932Z,41.33
2018-03-17T19:29:25.538Z,41.21
2018-03-17T19:31:53.122Z,40.86
2018-03-17T19:34:20.797Z,40.96
2018-03-17T19:36:48.366Z,41.51
2018-03-17T19:39:16.396Z,41.53
2018-03-17T19:41:44.553Z,41.17
2018-03-17T19:44:12.121Z,41.57
2018-03-17T19:46:39.777Z,41.72
2018-03-17T19:49:07.413Z,42.46
2018-03-17T19:51:35.277Z,43.59
2018-03-17T19:54:02.867Z,44.58
2018-03-17T19:56:30.755Z,45.47
2018-03-17T19:58:58.339Z,45.68
2018-03-17T20:01:26.035Z,46.10
2018-03-17T20:03:53.682Z,46.41
2018-03-17T20:06:21.281Z,46.38
2018-03-17T20:08:48.936Z,47.06
2018-03-17T20:11:16.511Z,46.73
2018-03-17T20:13:44.070Z,46.56
2018-03-17T20:16:12.009Z,46.81
2018-03-17T20:18:39.611Z,46.61
2018-03-17T20:21:07.409Z,47.08
2018-03-17T20:23:35.181Z,47.05
2018-03-17T20:26:02.834Z,47.30
2018-03-17T20:28:30.527Z,47.52
2018-03-17T20:30:58.172Z,47.59
2018-03-17T20:33:25.740Z,47.46
2018-03-17T20:35:53.510Z,46.70
2018-03-17T20:38:21.139Z,46.94
2018-03-17T20:40:48.781Z,47.48
2018-03-17T20:43:16.514Z,47.47
2018-03-17T20:45:44.253Z,47.34
2018-03-17T20:48:11.851Z,47.42
2018-03-17T20:50:39.477Z,47.74
2018-03-17T20:53:07.171Z,47.47
2018-03-17T20:55:34.801Z,46.96
2018-03-17T20:58:02.475Z,46.95
2018-03-17T21:00:30.144Z,47.19
2018-03-17T21:03:02.452Z,47.36
2018-03-17T21:05:30.110Z,47.06
2018-03-17T21:07:58.072Z,47.62
2018-03-17T21:10:25.662Z,47.10
2018-03-17T21:12:53.339Z,47.17
2018-03-17T21:15:20.924Z,47.22
2018-03-17T21:17:48.594Z,47.24
2018-03-17T21:20:16.250Z,47.46
2018-03-17T21:22:43.871Z,47.41
2018-03-17T21:25:11.732Z,46.95
2018-03-17T21:27:39.385Z,47.97
2018-03-17T21:30:06.998Z,47.96
2018-03-17T21:32:34.718Z,47.47
2018-03-17T21:35:02.376Z,47.75
2018-03-17T21:37:29.982Z,47.95
2018-03-17T21:39:57.707Z,47.97
2018-03-17T21:42:25.294Z,48.21
2018-03-17T21:44:52.874Z,47.89
2018-03-17T21:47:20.510Z,48.32
2018-03-17T21:49:48.598Z,48.23
2018-03-17T21:52:16.208Z,48.19
2018-03-17T21:54:43.856Z,48.30
2018-03-17T21:57:11.445Z,48.77
2018-03-17T21:59:39.059Z,49.09
2018-03-17T22:02:06.754Z,48.85
2018-03-17T22:04:34.393Z,48.86
2018-03-17T22:07:01.981Z,49.61
2018-03-17T22:09:29.622Z,49.45
2018-03-17T22:11:57.401Z,49.46
2018-03-17T22:14:25.194Z,49.93
2018-03-17T22:16:52.821Z,49.74
2018-03-17T22:19:20.473Z,50.21
2018-03-17T22:21:48.103Z,50.05
2018-03-17T22:24:15.966Z,50.28
2018-03-17T22:26:43.607Z,49.81
2018-03-17T22:29:11.299Z,50.05
2018-03-17T22:31:38.892Z,49.98
2018-03-17T22:34:06.522Z,50.21
2018-03-17T22:36:34.152Z,50.39
2018-03-17T22:39:01.771Z,49.86
2018-03-17T22:41:30.053Z,50.52
2018-03-17T22:43:57.672Z,50.60
2018-03-17T22:46:25.244Z,50.83
2018-03-17T22:48:53.315Z,50.72
2018-03-17T22:51:20.894Z,50.19
2018-03-17T22:53:48.523Z,49.97
2018-03-17T22:56:16.131Z,49.81
2018-03-17T22:58:43.762Z,50.27
2018-03-17T23:01:11.350Z,50.21
2018-03-17T23:03:38.944Z,50.44
2018-03-17T23:06:06.587Z,49.70
2018-03-17T23:08:34.186Z,49.74
2018-03-17T23:11:01.793Z,49.65
2018-03-17T23:13:29.681Z,49.79
2018-03-17T23:15:57.710Z,49.46
2018-03-17T23:18:25.378Z,49.79
2018-03-17T23:20:53.127Z,49.65
2018-03-17T23:23:21.017Z,49.70
2018-03-17T23:25:49.063Z,49.79
2018-03-17T23:28:17.342Z,49.47
2018-03-17T23:30:44.991Z,49.73
2018-03-17T23:33:12.593Z,49.88
2018-03-17T23:35:40.217Z,49.54
2018-03-17T23:38:07.919Z,49.29
2018-03-17T23:40:35.538Z,49.10
2018-03-17T23:43:03.700Z,49.72
2018-03-17T23:45:31.330Z,49.50
2018-03-17T23:47:59.083Z,48.87
2018-03-17T23:50:26.739Z,48.90
2018-03-17T23:52:54.376Z,48.67
2018-03-17T23:55:22.125Z,48.72
2018-03-17T23:57:49.740Z,49.29
